Time;durP1;ratioP1;P1;durP2;ratioP2;P2;SDS_P1;SDS_P2;PMS_P1;PMS_P2;Temp;Humidity;BMP_temperature;BMP_pressure;BME280_temperature;BME280_humidity;BME280_pressure;Samples;Min_cycle;Max_cycle;Signal;HPM_P1;HPM_P2
2021/10/22 00:00:01;;;;;;;3.12;0.78;;;;;;;10.57;49.13;95897.84;1739406;81;21161;-82
2021/10/22 00:02:27;;;;;;;3.77;1.00;;;;;;;10.56;49.15;95891.84;1681703;83;21161;-83
2021/10/22 00:04:53;;;;;;;3.22;1.15;;;;;;;10.54;49.23;95901.63;1676037;82;21505;-83
2021/10/22 00:07:19;;;;;;;2.15;0.85;;;;;;;10.52;49.36;95895.84;1720559;81;21185;-82
2021/10/22 00:12:10;;;;;;;2.50;0.70;;;;;;;10.52;49.36;95912.72;1686030;83;21092;-82
2021/10/22 00:14:36;;;;;;;1.47;0.60;;;;;;;10.53;49.53;95914.32;1682234;83;21216;-82
2021/10/22 00:17:02;;;;;;;1.32;0.75;;;;;;;10.54;49.69;95925.02;1718163;81;21382;-82
2021/10/22 00:19:28;;;;;;;3.80;0.72;;;;;;;10.55;49.77;95921.92;1722167;81;21071;-82
2021/10/22 00:21:54;;;;;;;4.55;0.90;;;;;;;10.54;49.80;95922.42;1718886;80;21805;-82
2021/10/22 00:24:20;;;;;;;1.42;0.75;;;;;;;10.54;49.89;95909.42;1739674;80;21056;-82
2021/10/22 00:26:46;;;;;;;1.75;0.50;;;;;;;10.55;50.04;95925.81;1704078;81;21544;-82
2021/10/22 00:29:12;;;;;;;3.17;0.80;;;;;;;10.53;49.95;95924.71;1697737;81;21036;-82
2021/10/22 00:31:37;;;;;;;2.60;0.57;;;;;;;10.53;50.23;95911.22;1722679;80;21082;-82
2021/10/22 00:34:03;;;;;;;2.45;0.80;;;;;;;10.55;50.23;95917.52;1719077;79;21119;-82
2021/10/22 00:36:29;;;;;;;2.12;0.53;;;;;;;10.54;50.64;95913.33;1741049;81;21177;-82
2021/10/22 00:38:55;;;;;;;2.25;0.70;;;;;;;10.52;50.88;95904.92;1719182;80;21123;-82
2021/10/22 00:41:21;;;;;;;1.85;0.70;;;;;;;10.51;50.68;95904.62;1710256;80;21455;-82
2021/10/22 00:43:47;;;;;;;1.65;0.60;;;;;;;10.50;50.96;95913.41;1732460;81;21235;-82
2021/10/22 00:46:12;;;;;;;1.42;0.70;;;;;;;10.47;50.79;95912.01;1685144;80;21143;-82
2021/10/22 00:48:39;;;;;;;2.15;0.70;;;;;;;10.47;51.04;95912.50;1719767;81;21126;-82
2021/10/22 00:51:06;;;;;;;3.47;1.10;;;;;;;10.44;51.21;95903.30;1678983;83;21514;-83
2021/10/22 00:53:33;;;;;;;1.40;0.60;;;;;;;10.44;51.24;95905.10;1664033;83;21130;-82
2021/10/22 00:55:59;;;;;;;2.02;0.50;;;;;;;10.44;51.20;95911.09;1699953;80;21116;-83
2021/10/22 00:58:25;;;;;;;2.08;0.90;;;;;;;10.46;51.29;95903.11;1670779;83;21431;-82
2021/10/22 01:00:51;;;;;;;2.85;0.65;;;;;;;10.46;51.37;95897.91;1723870;81;21445;-82
2021/10/22 01:03:16;;;;;;;2.95;0.93;;;;;;;10.45;51.58;95908.80;1719699;81;21061;-82
2021/10/22 01:05:43;;;;;;;1.42;0.50;;;;;;;10.45;51.76;95911.40;1735255;81;21200;-82
2021/10/22 01:08:09;;;;;;;2.27;0.65;;;;;;;10.43;51.98;95903.50;1705203;81;21089;-82
2021/10/22 01:10:38;;;;;;;2.75;0.70;;;;;;;10.43;52.17;95919.08;1702674;82;21507;-82
2021/10/22 01:13:04;;;;;;;1.00;0.60;;;;;;;10.44;52.19;95899.41;1714490;81;21082;-83
2021/10/22 01:15:30;;;;;;;2.52;0.70;;;;;;;10.46;52.12;95901.81;1718145;80;21038;-82
2021/10/22 01:17:56;;;;;;;1.85;0.82;;;;;;;10.47;52.19;95895.63;1700041;79;21077;-82
2021/10/22 01:20:22;;;;;;;1.50;0.55;;;;;;;10.48;52.20;95895.42;1702637;81;21126;-82
2021/10/22 01:22:51;;;;;;;2.17;0.60;;;;;;;10.49;52.23;95897.52;1685150;82;21152;-82
2021/10/22 01:25:21;;;;;;;2.17;0.60;;;;;;;10.51;52.24;95909.32;1730823;81;21459;-82
2021/10/22 01:27:47;;;;;;;3.83;1.12;;;;;;;10.52;52.31;95910.92;1709268;82;21085;-81
2021/10/22 01:30:16;;;;;;;2.05;0.65;;;;;;;10.57;52.33;95914.73;1679831;81;21107;-82
2021/10/22 01:32:43;;;;;;;2.47;0.62;;;;;;;10.57;52.37;95919.43;1740304;81;21102;-83
2021/10/22 01:37:36;;;;;;;1.55;0.53;;;;;;;10.62;52.22;95910.58;1696390;82;21071;-82
2021/10/22 01:40:04;;;;;;;2.20;0.60;;;;;;;10.63;52.24;95912.19;1715197;80;21169;-82
2021/10/22 01:42:30;;;;;;;2.12;0.65;;;;;;;10.62;52.21;95918.88;1755722;80;21070;-81
2021/10/22 01:44:56;;;;;;;2.40;0.72;;;;;;;10.60;52.30;95910.48;1758886;80;21094;-82
2021/10/22 01:47:23;;;;;;;2.25;0.85;;;;;;;10.56;52.34;95925.63;1749378;80;21050;-82
2021/10/22 01:49:50;;;;;;;2.30;0.50;;;;;;;10.56;52.51;95924.82;1737394;80;21123;-82
2021/10/22 01:52:17;;;;;;;2.17;0.70;;;;;;;10.53;52.62;95912.52;1744286;80;21077;-82
2021/10/22 01:54:43;;;;;;;1.95;0.70;;;;;;;10.51;52.62;95917.61;1697211;81;21091;-82
2021/10/22 01:57:10;;;;;;;2.50;0.95;;;;;;;10.50;52.58;95922.50;1684182;82;21114;-82
2021/10/22 01:59:37;;;;;;;0.68;0.45;;;;;;;10.49;52.71;95924.80;1710775;80;21669;-82
2021/10/22 02:02:03;;;;;;;4.17;1.02;;;;;;;10.46;52.80;95930.38;1732335;81;21099;-82
2021/10/22 02:04:31;;;;;;;0.90;0.68;;;;;;;10.44;52.83;95927.98;1676388;83;21130;-82
2021/10/22 02:06:57;;;;;;;2.42;0.93;;;;;;;10.44;52.98;95932.38;1737886;79;21080;-82
2021/10/22 02:09:23;;;;;;;1.27;0.72;;;;;;;10.41;53.11;95937.45;1761497;79;21157;-82
2021/10/22 02:11:48;;;;;;;3.47;1.15;;;;;;;10.43;53.27;95925.58;1699087;82;21775;-82
2021/10/22 02:14:15;;;;;;;2.05;0.60;;;;;;;10.43;53.42;95930.27;1694697;83;21093;-82
2021/10/22 02:16:42;;;;;;;2.45;0.98;;;;;;;10.43;53.37;95926.88;1663539;83;23472;-82
2021/10/22 02:19:09;;;;;;;3.08;1.07;;;;;;;10.44;53.44;95932.38;1720516;80;21095;-82
2021/10/22 02:21:35;;;;;;;2.72;0.70;;;;;;;10.44;53.65;95929.77;1649057;83;21067;-81
2021/10/22 02:24:00;;;;;;;2.27;0.80;;;;;;;10.44;53.81;95936.27;1666757;85;21083;-82
2021/10/22 02:26:27;;;;;;;2.00;0.70;;;;;;;10.43;53.84;95936.77;1677562;83;21130;-82
2021/10/22 02:28:52;;;;;;;2.52;0.90;;;;;;;10.42;53.88;95931.77;1708987;83;21122;-82
2021/10/22 02:31:19;;;;;;;1.92;0.62;;;;;;;10.41;53.93;95936.16;1685747;83;21013;-82
2021/10/22 02:33:46;;;;;;;2.30;0.98;;;;;;;10.42;53.92;95937.77;1714906;80;21098;-82
2021/10/22 02:36:12;;;;;;;4.47;1.00;;;;;;;10.42;53.92;95927.88;1720712;81;21135;-82
2021/10/22 02:38:38;;;;;;;3.60;0.98;;;;;;;10.40;53.91;95923.34;1686207;82;21091;-82
2021/10/22 02:41:04;;;;;;;2.15;0.85;;;;;;;10.35;54.10;95924.42;1672171;83;21058;-82
2021/10/22 02:43:30;;;;;;;2.08;0.75;;;;;;;10.31;54.06;95935.69;1720074;80;21154;-83
2021/10/22 02:45:56;;;;;;;1.65;0.80;;;;;;;10.28;54.27;95942.56;1683567;81;21485;-82
2021/10/22 02:48:22;;;;;;;2.00;0.70;;;;;;;10.23;54.36;95943.11;1696197;82;21063;-82
2021/10/22 02:50:47;;;;;;;1.95;0.75;;;;;;;10.22;54.58;95951.09;1672619;82;21134;-82
2021/10/22 02:53:13;;;;;;;1.32;0.70;;;;;;;10.20;54.70;95961.64;1676518;83;21211;-82
2021/10/22 02:55:39;;;;;;;3.02;0.80;;;;;;;10.20;54.59;95975.92;1730198;80;21092;-82
2021/10/22 02:58:05;;;;;;;3.35;0.90;;;;;;;10.21;54.73;95972.86;1716348;81;21056;-82
2021/10/22 03:00:31;;;;;;;4.58;1.00;;;;;;;10.23;54.79;95991.15;1701152;81;21145;-82
2021/10/22 03:02:56;;;;;;;2.65;1.30;;;;;;;10.25;55.02;95993.58;1673827;83;21122;-82
2021/10/22 03:05:24;;;;;;;4.65;1.20;;;;;;;10.25;55.20;95975.41;1720339;81;21124;-82
2021/10/22 03:07:49;;;;;;;2.75;1.02;;;;;;;10.22;55.26;95972.67;1730485;81;21035;-82
2021/10/22 03:10:15;;;;;;;2.60;0.90;;;;;;;10.20;55.39;95975.13;1723883;80;21178;-81
2021/10/22 03:12:41;;;;;;;3.75;1.10;;;;;;;10.18;55.56;95983.59;1663144;82;21159;-82
2021/10/22 03:15:08;;;;;;;2.40;1.10;;;;;;;10.13;55.66;95993.26;1693106;81;21235;-82
2021/10/22 03:17:33;;;;;;;2.70;1.20;;;;;;;10.11;55.94;95991.84;1719676;80;21096;-82
2021/10/22 03:19:59;;;;;;;2.05;0.78;;;;;;;10.06;56.07;96005.36;1714314;81;21227;-83
2021/10/22 03:22:25;;;;;;;1.72;0.62;;;;;;;10.04;56.22;96016.93;1727651;82;21381;-82
2021/10/22 03:24:51;;;;;;;3.15;0.75;;;;;;;10.00;56.37;96032.08;1747082;81;21109;-82
2021/10/22 03:27:20;;;;;;;2.95;1.00;;;;;;;9.96;56.81;96032.65;1728389;81;21021;-82
2021/10/22 03:29:45;;;;;;;2.52;1.00;;;;;;;9.89;56.73;96033.37;1680866;82;21134;-82
2021/10/22 03:32:11;;;;;;;3.58;0.90;;;;;;;9.85;56.95;96043.02;1746267;80;21428;-82
2021/10/22 03:34:37;;;;;;;2.60;0.88;;;;;;;9.80;56.97;96031.91;1680070;83;21104;-81
2021/10/22 03:37:03;;;;;;;2.98;1.20;;;;;;;9.74;57.06;96037.81;1707116;81;21434;-82
2021/10/22 03:39:29;;;;;;;1.50;0.80;;;;;;;9.69;56.89;96035.47;1678812;82;21186;-81
2021/10/22 03:41:55;;;;;;;1.65;0.65;;;;;;;9.62;57.49;96034.12;1689399;81;21173;-81
2021/10/22 03:44:21;;;;;;;2.45;0.70;;;;;;;9.57;57.38;96037.23;1686097;83;21513;-82
2021/10/22 03:46:47;;;;;;;1.67;0.85;;;;;;;9.53;57.60;96041.69;1668167;83;21102;-82
2021/10/22 03:49:12;;;;;;;1.95;0.90;;;;;;;9.48;57.79;96046.63;1715876;81;21066;-81
2021/10/22 03:51:38;;;;;;;2.02;0.80;;;;;;;9.43;57.92;96053.64;1678716;83;21116;-82
2021/10/22 03:54:04;;;;;;;3.60;0.80;;;;;;;9.37;58.11;96061.35;1680221;82;21055;-82
2021/10/22 03:56:30;;;;;;;1.77;0.85;;;;;;;9.33;58.32;96068.70;1705482;81;21528;-82
2021/10/22 03:58:55;;;;;;;1.47;0.70;;;;;;;9.30;58.39;96072.46;1751176;80;21394;-81
2021/10/22 04:01:22;;;;;;;1.85;0.70;;;;;;;9.28;58.44;96083.52;1739543;80;21133;-81
2021/10/22 04:03:48;;;;;;;2.20;0.72;;;;;;;9.27;58.35;96088.38;1698584;81;21065;-82
2021/10/22 04:06:14;;;;;;;1.20;0.60;;;;;;;9.26;58.46;96089.83;1719932;81;21109;-82
2021/10/22 04:08:40;;;;;;;1.60;0.80;;;;;;;9.23;58.66;96081.93;1731642;81;21637;-82
2021/10/22 04:11:06;;;;;;;2.17;0.72;;;;;;;9.20;58.46;96088.78;1695743;83;21109;-82
2021/10/22 04:13:32;;;;;;;1.55;0.90;;;;;;;9.18;58.55;96080.88;1670907;83;21201;-81
2021/10/22 04:15:58;;;;;;;1.02;0.57;;;;;;;9.15;58.75;96087.72;1727220;81;21521;-81
2021/10/22 04:18:23;;;;;;;3.17;0.80;;;;;;;9.08;58.94;96079.03;1729191;81;21043;-81
2021/10/22 04:20:50;;;;;;;3.00;0.60;;;;;;;9.02;58.79;96080.56;1717813;81;21087;-82
2021/10/22 04:23:16;;;;;;;1.15;0.57;;;;;;;8.96;58.84;96084.69;1707807;81;21066;-82
2021/10/22 04:25:42;;;;;;;1.40;0.50;;;;;;;8.91;58.94;96077.11;1748493;81;21453;-82
2021/10/22 04:28:09;;;;;;;0.72;0.50;;;;;;;8.85;59.14;96075.25;1713272;82;21036;-82
2021/10/22 04:30:36;;;;;;;4.62;1.70;;;;;;;8.79;58.94;96083.25;1718663;81;21070;-81
2021/10/22 04:33:01;;;;;;;1.98;0.60;;;;;;;8.75;59.30;96081.17;1741436;81;21067;-82
2021/10/22 04:35:27;;;;;;;3.50;0.62;;;;;;;8.67;59.35;96075.59;1708247;81;21147;-82
2021/10/22 04:40:33;;;;;;;1.40;0.60;;;;;;;8.62;60.47;96081.31;1739870;80;21119;-82
2021/10/22 04:45:37;;;;;;;2.05;0.72;;;;;;;8.56;60.86;96092.84;1671325;81;21066;-81
2021/10/22 04:48:05;;;;;;;2.70;0.75;;;;;;;8.51;60.76;96091.28;1736071;79;21102;-81
2021/10/22 04:50:31;;;;;;;3.10;0.80;;;;;;;8.47;60.64;96092.63;1718276;80;21068;-82
2021/10/22 04:52:57;;;;;;;1.35;0.70;;;;;;;8.43;61.04;96100.72;1709894;79;21467;-81
2021/10/22 04:55:26;;;;;;;2.95;0.90;;;;;;;8.38;61.21;96107.41;1720637;80;21094;-81
2021/10/22 04:57:52;;;;;;;1.52;1.10;;;;;;;8.35;61.43;96102.58;1732720;81;21200;-81
2021/10/22 05:00:18;;;;;;;1.95;0.90;;;;;;;8.33;61.79;96101.92;1745105;79;21123;-82
2021/10/22 05:02:44;;;;;;;2.33;0.78;;;;;;;8.33;61.72;96102.73;1737069;80;21110;-82
2021/10/22 05:05:11;;;;;;;2.00;1.00;;;;;;;8.33;61.53;96095.45;1712434;81;21463;-81
2021/10/22 05:07:36;;;;;;;2.65;1.27;;;;;;;8.34;61.64;96097.09;1709458;81;21125;-81
2021/10/22 05:10:04;;;;;;;1.92;0.98;;;;;;;8.32;61.88;96098.53;1738338;80;21137;-82
2021/10/22 05:12:30;;;;;;;1.55;0.95;;;;;;;8.28;61.94;96099.03;1748316;81;21064;-82
2021/10/22 05:14:55;;;;;;;2.37;0.95;;;;;;;8.25;62.05;96100.67;1716628;82;21686;-82
2021/10/22 05:17:22;;;;;;;1.65;1.00;;;;;;;8.23;61.77;96107.81;1718001;81;21143;-81
2021/10/22 05:19:48;;;;;;;4.85;0.90;;;;;;;8.19;62.16;96114.33;1723286;80;21136;-81
2021/10/22 05:22:14;;;;;;;2.98;1.25;;;;;;;8.17;62.25;96119.67;1725309;80;21089;-81
2021/10/22 05:24:40;;;;;;;2.00;1.22;;;;;;;8.12;62.24;96124.54;1745895;80;21455;-82
2021/10/22 05:27:06;;;;;;;3.90;0.90;;;;;;;8.06;61.80;96128.63;1724188;81;21117;-82
2021/10/22 05:29:33;;;;;;;3.00;0.95;;;;;;;8.02;61.96;96135.14;1730279;81;21054;-81
2021/10/22 05:31:59;;;;;;;1.92;1.00;;;;;;;7.98;61.55;96139.05;1722909;81;21130;-82
2021/10/22 05:34:24;;;;;;;2.22;1.00;;;;;;;7.93;61.58;96150.38;1710887;81;21137;-82
2021/10/22 05:36:51;;;;;;;3.35;1.20;;;;;;;7.88;61.40;96155.27;1741684;80;21158;-81
2021/10/22 05:39:16;;;;;;;1.60;0.80;;;;;;;7.83;61.13;96155.78;1722793;82;21091;-81
2021/10/22 05:41:44;;;;;;;2.95;0.88;;;;;;;7.81;60.54;96156.94;1714163;81;21210;-81
2021/10/22 05:44:10;;;;;;;2.12;0.70;;;;;;;7.76;60.22;96161.30;1758050;80;21151;-81
2021/10/22 05:46:36;;;;;;;2.55;0.95;;;;;;;7.73;60.07;96164.72;1746710;80;21109;-83
2021/10/22 05:49:02;;;;;;;2.62;0.95;;;;;;;7.68;60.04;96167.82;1746685;79;21075;-82
2021/10/22 05:51:28;;;;;;;1.75;0.78;;;;;;;7.65;59.80;96177.22;1699769;79;21150;-81
2021/10/22 05:53:55;;;;;;;2.67;0.95;;;;;;;7.62;59.85;96181.89;1701821;80;21103;-81
2021/10/22 05:56:21;;;;;;;2.62;0.78;;;;;;;7.59;59.87;96186.91;1719981;80;21055;-81
2021/10/22 05:58:47;;;;;;;1.15;0.70;;;;;;;7.57;59.90;96184.19;1710509;79;21794;-82
2021/10/22 06:01:13;;;;;;;1.20;0.68;;;;;;;7.55;59.96;96184.84;1694821;82;21184;-81
2021/10/22 06:03:39;;;;;;;1.47;0.78;;;;;;;7.51;60.08;96192.94;1713810;81;21092;-81
2021/10/22 06:06:06;;;;;;;2.00;0.78;;;;;;;7.48;59.99;96200.20;1704247;81;21235;-81
2021/10/22 06:08:32;;;;;;;1.95;0.70;;;;;;;7.47;59.96;96203.75;1681937;83;21133;-81
2021/10/22 06:10:58;;;;;;;4.28;1.02;;;;;;;7.47;60.10;96205.05;1707162;82;21082;-81
2021/10/22 06:13:24;;;;;;;1.45;0.68;;;;;;;7.46;60.21;96216.36;1718630;80;21114;-81
2021/10/22 06:15:50;;;;;;;2.40;1.00;;;;;;;7.43;60.04;96205.07;1754840;79;21058;-81
2021/10/22 06:18:18;;;;;;;4.30;1.62;;;;;;;7.42;60.21;96212.02;1705597;81;21576;-81
2021/10/22 06:20:52;;;;;;;2.62;1.00;;;;;;;7.39;60.01;96217.52;1690347;82;21143;-81
2021/10/22 06:25:59;;;;;;;1.57;0.90;;;;;;;7.36;60.06;96222.23;1702062;81;21219;-82
2021/10/22 06:28:25;;;;;;;1.72;1.12;;;;;;;7.32;59.77;96231.26;1723972;80;21906;-81
2021/10/22 06:30:51;;;;;;;3.17;1.00;;;;;;;7.33;59.84;96223.37;1713217;81;21060;-81
2021/10/22 06:33:17;;;;;;;3.80;1.00;;;;;;;7.32;59.95;96226.92;1738087;81;21106;-81
2021/10/22 06:35:45;;;;;;;1.90;0.68;;;;;;;7.32;59.94;96228.67;1695469;81;21103;-81
2021/10/22 06:38:10;;;;;;;2.45;1.12;;;;;;;7.32;59.83;96237.27;1688105;82;21468;-81
2021/10/22 06:40:36;;;;;;;2.15;0.85;;;;;;;7.32;59.84;96239.84;1634858;85;21127;-82
2021/10/22 06:43:02;;;;;;;2.72;0.85;;;;;;;7.33;59.73;96251.00;1671625;80;21457;-81
2021/10/22 06:45:28;;;;;;;1.20;0.70;;;;;;;7.33;59.64;96247.92;1746461;81;21121;-81
2021/10/22 06:47:54;;;;;;;3.17;1.07;;;;;;;7.32;59.31;96255.36;1747399;81;21222;-81
2021/10/22 06:50:20;;;;;;;2.83;1.00;;;;;;;7.32;59.03;96251.94;1737871;81;21486;-81
2021/10/22 06:52:46;;;;;;;2.62;0.80;;;;;;;7.32;58.57;96252.77;1719773;82;21164;-81
2021/10/22 06:55:12;;;;;;;2.55;0.80;;;;;;;7.34;57.92;96262.95;1727304;81;21142;-81
2021/10/22 06:57:41;;;;;;;1.42;0.90;;;;;;;7.35;57.78;96256.80;1738737;81;21121;-81
2021/10/22 07:00:08;;;;;;;2.12;0.90;;;;;;;7.35;57.94;96254.22;1738093;81;21068;-81
2021/10/22 07:02:46;;;;;;;3.87;0.93;;;;;;;7.34;58.26;96250.83;1729014;80;21121;-81
2021/10/22 07:05:26;;;;;;;1.87;0.90;;;;;;;7.33;58.22;96247.92;1715039;82;21122;-81
2021/10/22 07:07:42;;;;;;;3.67;1.10;;;;;;;7.33;58.36;96258.75;1678617;82;21051;-81
2021/10/22 07:10:08;;;;;;;3.62;0.88;;;;;;;7.33;57.92;96261.33;1730430;81;21199;-82
2021/10/22 07:12:34;;;;;;;3.33;1.15;;;;;;;7.35;58.06;96264.56;1742544;81;21485;-81
2021/10/22 07:15:02;;;;;;;3.05;0.90;;;;;;;7.37;57.74;96267.78;1727133;81;21041;-81
2021/10/22 07:17:28;;;;;;;4.42;1.00;;;;;;;7.40;57.60;96263.57;1690412;83;21093;-82
2021/10/22 07:19:56;;;;;;;3.62;0.98;;;;;;;7.43;57.07;96266.63;1739524;81;20998;-81
2021/10/22 07:22:29;;;;;;;2.15;0.80;;;;;;;7.49;56.58;96274.23;1718233;82;21241;-81
2021/10/22 07:24:49;;;;;;;2.83;0.90;;;;;;;7.55;56.20;96282.61;1670659;83;21108;-81
2021/10/22 07:27:15;;;;;;;2.00;0.90;;;;;;;7.62;55.99;96285.33;1699797;81;21116;-81
2021/10/22 07:29:40;;;;;;;3.42;1.02;;;;;;;7.67;54.75;96287.75;1693786;82;21035;-81
2021/10/22 07:32:06;;;;;;;2.55;0.95;;;;;;;7.71;54.44;96286.94;1711818;82;21108;-81
2021/10/22 07:34:32;;;;;;;1.92;0.98;;;;;;;7.77;54.60;96290.14;1707270;83;21146;-81
2021/10/22 07:36:58;;;;;;;3.02;0.82;;;;;;;7.83;54.47;96288.20;1724517;81;21091;-81
2021/10/22 07:39:24;;;;;;;2.15;0.80;;;;;;;7.88;53.87;96294.16;1689436;82;21437;-82
2021/10/22 07:41:50;;;;;;;2.70;0.78;;;;;;;7.93;52.96;96302.21;1675781;83;21492;-81
2021/10/22 07:44:16;;;;;;;6.03;1.10;;;;;;;7.96;52.93;96300.58;1638581;85;21136;-81
2021/10/22 07:46:43;;;;;;;3.35;1.00;;;;;;;7.98;52.87;96311.11;1684700;83;21078;-81
2021/10/22 07:49:11;;;;;;;3.20;0.82;;;;;;;7.99;53.11;96316.60;1737050;81;21110;-81
2021/10/22 07:51:36;;;;;;;1.42;1.00;;;;;;;8.00;53.10;96309.16;1726164;81;21114;-81
2021/10/22 07:54:02;;;;;;;5.12;0.78;;;;;;;8.02;52.58;96311.09;1712779;82;21084;-81
2021/10/22 07:56:28;;;;;;;2.37;0.75;;;;;;;8.05;53.40;96319.00;1705498;81;21082;-83
2021/10/22 07:58:54;;;;;;;2.00;0.82;;;;;;;8.09;53.24;96320.27;1714285;81;21072;-82
2021/10/22 08:01:20;;;;;;;3.77;0.80;;;;;;;8.11;52.76;96317.83;1727218;81;21608;-81
2021/10/22 08:03:48;;;;;;;2.27;1.10;;;;;;;8.14;52.96;96325.77;1752274;80;21172;-81
2021/10/22 08:06:15;;;;;;;1.85;0.80;;;;;;;8.17;53.18;96321.55;1697748;82;21128;-81
2021/10/22 08:08:47;;;;;;;2.72;0.60;;;;;;;8.21;53.59;96315.05;1711580;81;21071;-81
2021/10/22 08:11:15;;;;;;;2.30;1.10;;;;;;;8.28;53.66;96322.94;1680318;84;21504;-81
2021/10/22 08:13:42;;;;;;;2.58;0.90;;;;;;;8.32;53.71;96324.24;1709733;82;21102;-81
2021/10/22 08:16:08;;;;;;;1.42;0.60;;;;;;;8.35;54.09;96335.58;1693265;82;21091;-81
2021/10/22 08:18:38;;;;;;;1.45;0.55;;;;;;;8.39;54.11;96326.49;1700394;81;21079;-81
2021/10/22 08:23:33;;;;;;;2.62;0.90;;;;;;;8.43;54.31;96318.20;1692316;81;21121;-81
2021/10/22 08:25:59;;;;;;;2.17;0.82;;;;;;;8.46;54.74;96318.84;1688647;83;21023;-82
2021/10/22 08:28:25;;;;;;;2.25;0.80;;;;;;;8.48;54.67;96324.19;1705098;83;21103;-81
2021/10/22 08:30:57;;;;;;;1.42;0.75;;;;;;;8.53;54.90;96328.37;1678732;83;21244;-82
2021/10/22 08:33:26;;;;;;;0.98;0.60;;;;;;;8.57;54.76;96329.63;1692033;83;21118;-81
2021/10/22 08:35:55;;;;;;;1.47;0.72;;;;;;;8.60;55.04;96319.41;1707090;81;21114;-81
2021/10/22 08:38:21;;;;;;;2.58;0.90;;;;;;;8.63;55.04;96322.98;1716686;80;21078;-81
2021/10/22 08:40:47;;;;;;;1.57;1.00;;;;;;;8.66;54.90;96318.27;1721316;81;21065;-81
2021/10/22 08:43:13;;;;;;;3.50;1.00;;;;;;;8.72;55.46;96320.64;1695018;82;21118;-81
2021/10/22 08:45:39;;;;;;;4.03;1.10;;;;;;;8.80;55.78;96324.98;1675405;80;21481;-81
2021/10/22 08:48:11;;;;;;;1.65;0.85;;;;;;;8.88;55.71;96327.52;1691863;80;21188;-81
2021/10/22 08:50:33;;;;;;;2.27;0.95;;;;;;;8.93;55.48;96337.66;1674146;82;21162;-82
2021/10/22 08:53:00;;;;;;;2.80;1.00;;;;;;;8.94;55.08;96342.36;1742174;80;21194;-82
2021/10/22 08:55:26;;;;;;;4.85;1.35;;;;;;;8.93;54.76;96344.14;1743342;78;21162;-81
2021/10/22 08:57:52;;;;;;;3.47;1.40;;;;;;;8.96;55.45;96339.12;1724254;79;21087;-81
2021/10/22 09:02:45;;;;;;;3.50;1.10;;;;;;;9.07;55.31;96334.02;1730086;81;21080;-81
2021/10/22 09:05:16;;;;;;;1.80;0.95;;;;;;;9.11;55.51;96334.81;1704867;82;22207;-81
2021/10/22 09:07:50;;;;;;;1.00;0.70;;;;;;;9.17;55.84;96343.67;1679161;82;21638;-81
2021/10/22 09:10:20;;;;;;;2.95;0.90;;;;;;;9.20;55.34;96335.05;1723109;80;21058;-81
2021/10/22 09:12:54;;;;;;;2.35;1.00;;;;;;;9.22;55.57;96333.09;1732304;80;21078;-81
2021/10/22 09:15:26;;;;;;;2.08;1.02;;;;;;;9.25;55.22;96326.25;1737916;80;21058;-81
2021/10/22 09:17:53;;;;;;;1.95;0.70;;;;;;;9.27;55.08;96345.06;1726865;80;21085;-82
2021/10/22 09:20:19;;;;;;;2.17;0.78;;;;;;;9.29;54.88;96339.70;1711140;81;21549;-81
2021/10/22 09:22:54;;;;;;;3.02;1.05;;;;;;;9.33;54.69;96346.14;1704888;80;22075;-81
2021/10/22 09:25:23;;;;;;;2.35;1.15;;;;;;;9.39;54.88;96332.95;1728203;81;21554;-82
2021/10/22 09:27:59;;;;;;;3.33;0.80;;;;;;;9.44;54.76;96347.03;1680134;84;21220;-81
2021/10/22 09:33:04;;;;;;;3.60;0.93;;;;;;;9.52;54.50;96344.35;1717437;81;21086;-81
2021/10/22 09:35:37;;;;;;;0.98;0.62;;;;;;;9.54;54.20;96349.36;1713467;81;21119;-81
2021/10/22 09:38:13;;;;;;;3.60;0.85;;;;;;;9.59;54.34;96348.33;1702960;82;21358;-81
2021/10/22 09:40:41;;;;;;;3.30;1.15;;;;;;;9.64;54.24;96355.12;1714619;81;21163;-81
2021/10/22 09:43:30;;;;;;;3.65;1.05;;;;;;;9.69;54.05;96360.58;1709676;82;21522;-81
2021/10/22 09:46:15;;;;;;;2.75;1.52;;;;;;;9.74;53.59;96350.95;1741816;80;21082;-81
2021/10/22 09:48:46;;;;;;;1.52;0.90;;;;;;;9.81;53.61;96357.87;1731333;81;21106;-81
2021/10/22 09:51:31;;;;;;;2.72;0.80;;;;;;;9.87;53.70;96344.17;1721711;79;21143;-81
2021/10/22 09:54:12;;;;;;;3.15;0.90;;;;;;;9.91;54.07;96350.61;1733188;80;21232;-81
2021/10/22 09:56:41;;;;;;;2.37;0.85;;;;;;;9.92;53.10;96356.15;1689906;81;21106;-81
2021/10/22 09:59:11;;;;;;;1.87;0.85;;;;;;;9.92;53.16;96360.50;1705262;82;21150;-81
2021/10/22 10:04:10;;;;;;;2.77;1.00;;;;;;;9.98;52.96;96348.63;1736187;79;21095;-81
2021/10/22 10:09:08;;;;;;;1.85;1.10;;;;;;;10.08;52.40;96341.36;1697315;79;21449;-82
2021/10/22 10:11:33;;;;;;;2.50;0.90;;;;;;;10.06;51.96;96342.84;1730437;82;22082;-82
2021/10/22 10:14:01;;;;;;;1.65;1.17;;;;;;;10.10;52.05;96329.83;1717336;79;21098;-81
2021/10/22 10:16:28;;;;;;;5.12;0.80;;;;;;;10.21;52.73;96325.49;1704698;81;21156;-81
2021/10/22 10:19:20;;;;;;;5.47;1.07;;;;;;;10.31;52.50;96322.63;1699479;80;21110;-82
2021/10/22 10:21:50;;;;;;;2.02;0.75;;;;;;;10.37;51.96;96323.19;1729004;79;21583;-81
2021/10/22 10:24:18;;;;;;;1.95;1.10;;;;;;;10.25;52.27;96319.94;1683202;82;21070;-82
2021/10/22 10:26:44;;;;;;;2.67;1.00;;;;;;;10.25;52.16;96313.44;1728837;80;21070;-81
2021/10/22 10:29:13;;;;;;;3.92;1.15;;;;;;;10.29;52.72;96304.33;1698531;81;21491;-81
2021/10/22 10:31:45;;;;;;;1.92;0.90;;;;;;;10.41;52.49;96303.69;1698799;81;21453;-81
2021/10/22 10:34:32;;;;;;;2.10;1.20;;;;;;;10.50;50.27;96301.27;1731259;81;21078;-81
2021/10/22 10:36:59;;;;;;;1.82;0.90;;;;;;;10.54;51.68;96293.91;1738026;80;21172;-81
2021/10/22 10:39:46;;;;;;;3.90;1.20;;;;;;;10.63;51.31;96299.81;1734400;80;21121;-81
2021/10/22 10:42:32;;;;;;;4.50;0.90;;;;;;;10.65;50.10;96291.34;1763224;80;21164;-80
2021/10/22 10:45:03;;;;;;;2.12;1.10;;;;;;;10.69;49.25;96289.48;1698885;81;21100;-81
2021/10/22 10:47:40;;;;;;;3.20;1.22;;;;;;;10.72;48.98;96281.31;1704099;83;21132;-81
2021/10/22 10:50:08;;;;;;;3.72;1.30;;;;;;;10.77;48.49;96284.18;1709618;83;21231;-81
2021/10/22 10:52:48;;;;;;;3.30;1.05;;;;;;;10.88;50.04;96292.45;1718370;81;21038;-81
2021/10/22 10:55:45;;;;;;;2.83;1.67;;;;;;;10.95;48.95;96290.25;1720505;81;21195;-81
2021/10/22 10:58:20;;;;;;;2.22;1.45;;;;;;;10.97;48.35;96276.56;1751809;80;21037;-81
2021/10/22 11:00:55;;;;;;;3.80;1.10;;;;;;;11.02;48.68;96275.50;1751449;79;21113;-80
2021/10/22 11:03:27;;;;;;;2.80;0.90;;;;;;;11.07;48.11;96274.95;1667020;82;21080;-81
2021/10/22 11:08:36;;;;;;;1.92;1.00;;;;;;;11.13;47.04;96260.70;1726088;80;21106;-81
2021/10/22 11:11:07;;;;;;;1.47;0.62;;;;;;;11.19;47.53;96257.83;1701781;80;21066;-81
2021/10/22 11:13:48;;;;;;;1.35;0.68;;;;;;;11.27;46.44;96264.71;1710313;81;21151;-81
2021/10/22 11:16:26;;;;;;;2.33;1.15;;;;;;;11.31;46.97;96269.34;1702426;82;21200;-81
2021/10/22 11:21:29;;;;;;;3.05;0.90;;;;;;;11.37;47.10;96267.77;1734565;80;21146;-81
2021/10/22 11:23:57;;;;;;;2.17;0.80;;;;;;;11.46;47.03;96263.24;1731796;81;21462;-81
2021/10/22 11:26:23;;;;;;;2.12;1.25;;;;;;;11.51;48.43;96255.66;1701776;82;21180;-81
2021/10/22 11:28:55;;;;;;;4.45;2.10;;;;;;;11.53;47.28;96234.95;1720062;81;21093;-80
2021/10/22 11:31:39;;;;;;;4.20;1.67;;;;;;;11.52;45.41;96228.15;1730186;81;21107;-81
2021/10/22 11:34:07;;;;;;;3.40;1.00;;;;;;;11.51;46.23;96228.34;1700250;83;21103;-81
2021/10/22 11:36:33;;;;;;;2.02;0.90;;;;;;;11.58;46.49;96217.49;1705098;81;21146;-81
2021/10/22 11:39:01;;;;;;;2.62;0.62;;;;;;;11.64;44.87;96218.81;1668891;81;21504;-82
2021/10/22 11:41:27;;;;;;;2.80;0.80;;;;;;;11.73;46.14;96210.38;1721968;82;21188;-81
2021/10/22 11:46:46;;;;;;;1.90;0.70;;;;;;;11.82;46.08;96209.23;1738195;80;21163;-81
2021/10/22 11:49:36;;;;;;;2.87;1.20;;;;;;;11.87;45.78;96204.23;1710835;82;21126;-81
2021/10/22 11:52:02;;;;;;;3.90;1.80;;;;;;;12.01;46.02;96205.09;1706670;82;21081;-81
2021/10/22 11:54:43;;;;;;;2.72;1.67;;;;;;;12.05;43.90;96200.33;1727723;80;21432;-81
2021/10/22 11:59:42;;;;;;;3.77;1.60;;;;;;;12.09;45.38;96188.52;1745157;81;21078;-81
2021/10/22 12:02:08;;;;;;;3.50;2.47;;;;;;;12.13;45.47;96179.30;1715811;81;21182;-81
2021/10/22 12:04:35;;;;;;;5.03;2.40;;;;;;;12.14;45.58;96179.60;1730201;81;21118;-80
2021/10/22 12:07:07;;;;;;;5.37;2.50;;;;;;;12.19;45.77;96182.41;1671535;84;21496;-81
2021/10/22 12:09:39;;;;;;;3.12;1.90;;;;;;;12.24;44.87;96176.94;1683959;82;21071;-81
2021/10/22 12:14:45;;;;;;;6.75;2.60;;;;;;;12.27;45.07;96166.13;1707805;81;21137;-81
2021/10/22 12:17:16;;;;;;;5.75;2.47;;;;;;;12.19;45.16;96165.48;1734909;81;21109;-81
2021/10/22 12:19:44;;;;;;;3.12;1.30;;;;;;;12.22;45.58;96171.12;1717391;81;21039;-81